Aérodrome :
LOGIN :

S'inscrire | Disclaimer

   EN    FR    IT 

 










Légende :    VFR   VFR Marginal   IFR   IFR Intensif   IFR Très Intensif
Visi : 
Plafond : 
>= 8 km
>= 3000ft
5 à 8 km
1000 à 3000 ft
1500m à 5 km
500 à 1000 ft
800 à 1500m
200 à 500 ft
< 800m
< 200 ft
Symboles :   Orages  Brouillard  Fortes neiges  Fortes précipitations  Vent > 20 kt
SIGMETs :   Divers  Orages  Givrage  Turbulence  Onde Orograph.  Cendres Volcan.






- Altitude de l'aérodrome : 19 ft
- Code IATA : BEB


EGPL - Benbecula

DERNIER METAR :
  • 041920Z AUTO 01025KT 9999 BKN023/// 07/03 Q0996

METARs EXPIRÉS :
  • 041850Z AUTO 01026G37KT 9999 BKN024/// 07/03 Q0996
  • 041820Z AUTO 01027KT 9999 BKN027/// 07/03 Q0995
  • 041750Z AUTO 01030KT 9999 FEW030/// 07/02 Q0995
  • 041720Z AUTO 01028KT 9999 NCD 07/02 Q0995
  • 041650Z AUTO 01027G38KT 9999 NCD 06/02 Q0994

Prévision TAF périmée.
ATIS : +44 1870 604 818



MET'MAP, la Météo Aéronautique d'un coup d'oeil ! - Copyright ORBIFLY Décembre 2007 - Disclaimer

ORBIFLY MET'MAP TEAM :

Programmation & Développement : Alexandra Zaïnal
Sur une idée originale de : Baudouin d'Aumeries
Assistance à la programmation : Marc-Olivier Méhu
Soutien technique & logistique : Manuel Goepfert

Contact : metmap@orbifly.com




SOURCES & CREDITS :

   NOAA